createdAt,value
2022-12-05T00:00:35.487Z,1014.79
2022-12-05T00:01:35.548Z,1014.80
2022-12-05T00:02:35.502Z,1014.79
2022-12-05T00:03:35.427Z,1014.77
2022-12-05T00:04:35.465Z,1014.78
2022-12-05T00:05:35.396Z,1014.76
2022-12-05T00:06:35.356Z,1014.72
2022-12-05T00:07:35.380Z,1014.80
2022-12-05T00:08:35.385Z,1014.74
2022-12-05T00:09:35.323Z,1014.73
2022-12-05T00:10:35.316Z,1014.75
2022-12-05T00:11:35.314Z,1014.74
2022-12-05T00:12:35.296Z,1014.77
2022-12-05T00:13:35.317Z,1014.83
2022-12-05T00:14:35.275Z,1014.78
2022-12-05T00:15:35.264Z,1014.79
2022-12-05T00:16:35.458Z,1014.86
2022-12-05T00:17:35.238Z,1014.80
2022-12-05T00:18:35.227Z,1014.87
2022-12-05T00:19:35.216Z,1014.82
2022-12-05T00:20:35.206Z,1014.86
2022-12-05T00:21:35.217Z,1014.80
2022-12-05T00:22:35.187Z,1014.91
2022-12-05T00:23:35.175Z,1014.90
2022-12-05T00:24:35.186Z,1014.79
2022-12-05T00:25:35.147Z,1014.88
2022-12-05T00:26:35.170Z,1014.92
2022-12-05T00:27:35.134Z,1014.93
2022-12-05T00:28:35.140Z,1014.89
2022-12-05T00:29:35.104Z,1014.84
2022-12-05T00:30:35.103Z,1014.89
2022-12-05T00:31:35.173Z,1014.92
2022-12-05T00:32:35.079Z,1014.83
2022-12-05T00:33:35.087Z,1014.89
2022-12-05T00:34:35.083Z,1014.92
2022-12-05T00:35:35.046Z,1014.88
2022-12-05T00:36:35.035Z,1014.85
2022-12-05T00:37:35.017Z,1014.82
2022-12-05T00:38:35.019Z,1014.86
2022-12-05T00:39:35.020Z,1014.85
2022-12-05T00:40:35.015Z,1014.86
2022-12-05T00:41:34.995Z,1014.83
2022-12-05T00:42:34.971Z,1014.85
2022-12-05T00:43:34.958Z,1014.79
2022-12-05T00:44:34.949Z,1014.88
2022-12-05T00:45:35.022Z,1014.85
2022-12-05T00:46:35.006Z,1014.84
2022-12-05T00:47:34.919Z,1014.86
2022-12-05T00:48:34.905Z,1014.89
2022-12-05T00:49:34.901Z,1014.85
2022-12-05T00:50:34.914Z,1014.85
2022-12-05T00:51:34.874Z,1014.86
2022-12-05T00:52:34.861Z,1014.82
2022-12-05T00:53:34.850Z,1014.82
2022-12-05T00:54:34.838Z,1014.85
2022-12-05T00:55:34.855Z,1014.81
2022-12-05T00:56:34.843Z,1014.88
2022-12-05T00:57:34.806Z,1014.83
2022-12-05T00:58:34.797Z,1014.81
2022-12-05T00:59:34.784Z,1014.87
2022-12-05T01:00:34.776Z,1014.82
2022-12-05T01:01:34.918Z,1014.80
2022-12-05T01:02:34.753Z,1014.82
2022-12-05T01:03:34.793Z,1014.85
2022-12-05T01:04:34.739Z,1014.84
2022-12-05T01:05:34.724Z,1014.79
2022-12-05T01:06:34.737Z,1014.81
2022-12-05T01:07:34.745Z,1014.82
2022-12-05T01:08:34.681Z,1014.78
2022-12-05T01:09:34.680Z,1014.74
2022-12-05T01:10:34.661Z,1014.70
2022-12-05T01:11:39.455Z,1014.71
2022-12-05T01:12:35.665Z,1014.73
2022-12-05T01:13:34.634Z,1014.71
2022-12-05T01:14:34.625Z,1014.69
2022-12-05T01:15:34.612Z,1014.69
2022-12-05T01:16:34.690Z,1014.65
2022-12-05T01:17:34.597Z,1014.66
2022-12-05T01:18:34.572Z,1014.60
2022-12-05T01:19:34.571Z,1014.58
2022-12-05T01:20:34.552Z,1014.65
2022-12-05T01:21:34.573Z,1014.56
2022-12-05T01:22:34.533Z,1014.64
2022-12-05T01:23:34.522Z,1014.58
2022-12-05T01:24:34.514Z,1014.54
2022-12-05T01:25:34.505Z,1014.60
2022-12-05T01:26:34.505Z,1014.61
2022-12-05T01:27:34.481Z,1014.53
2022-12-05T01:28:34.551Z,1014.59
2022-12-05T01:29:34.464Z,1014.54
2022-12-05T01:30:34.451Z,1014.57
2022-12-05T01:31:34.505Z,1014.55
2022-12-05T01:32:34.427Z,1014.56
2022-12-05T01:33:34.444Z,1014.61
2022-12-05T01:34:34.407Z,1014.62
2022-12-05T01:35:34.399Z,1014.59
2022-12-05T01:36:34.397Z,1014.64
2022-12-05T01:37:34.378Z,1014.57
2022-12-05T01:38:34.382Z,1014.61
2022-12-05T01:39:34.351Z,1014.58
2022-12-05T01:40:34.338Z,1014.61
2022-12-05T01:41:34.332Z,1014.61
2022-12-05T01:42:34.315Z,1014.58
2022-12-05T01:43:34.338Z,1014.60
2022-12-05T01:44:34.318Z,1014.55
2022-12-05T01:45:34.348Z,1014.57
2022-12-05T01:46:34.272Z,1014.57
2022-12-05T01:47:34.266Z,1014.56
2022-12-05T01:48:34.276Z,1014.58
2022-12-05T01:49:34.245Z,1014.53
2022-12-05T01:50:34.235Z,1014.58
2022-12-05T01:51:34.226Z,1014.58
2022-12-05T01:52:34.227Z,1014.61
2022-12-05T01:53:34.200Z,1014.57
2022-12-05T01:54:34.202Z,1014.63
2022-12-05T01:55:34.178Z,1014.57
2022-12-05T01:56:34.161Z,1014.55
2022-12-05T01:57:34.221Z,1014.52
2022-12-05T01:58:34.141Z,1014.56
2022-12-05T01:59:34.202Z,1014.55
2022-12-05T02:00:34.145Z,1014.54
2022-12-05T02:01:34.239Z,1014.50
2022-12-05T02:02:34.135Z,1014.49
2022-12-05T02:03:34.111Z,1014.55
2022-12-05T02:04:34.080Z,1014.55
2022-12-05T02:05:34.072Z,1014.50
2022-12-05T02:06:34.055Z,1014.48
2022-12-05T02:07:34.124Z,1014.44
2022-12-05T02:08:34.061Z,1014.47
2022-12-05T02:09:34.034Z,1014.45
2022-12-05T02:10:34.017Z,1014.52
2022-12-05T02:11:34.015Z,1014.49
2022-12-05T02:12:33.994Z,1014.48
2022-12-05T02:13:34.011Z,1014.47
2022-12-05T02:14:33.990Z,1014.50
2022-12-05T02:15:33.968Z,1014.48
2022-12-05T02:16:34.033Z,1014.52
2022-12-05T02:17:33.942Z,1014.45
2022-12-05T02:18:33.952Z,1014.48
2022-12-05T02:19:33.925Z,1014.43
2022-12-05T02:20:33.906Z,1014.44
2022-12-05T02:21:33.921Z,1014.51
2022-12-05T02:22:33.891Z,1014.42
2022-12-05T02:23:33.906Z,1014.47
2022-12-05T02:24:33.866Z,1014.44
2022-12-05T02:25:33.857Z,1014.53
2022-12-05T02:26:33.864Z,1014.51
2022-12-05T02:27:33.833Z,1014.42
2022-12-05T02:28:33.826Z,1014.45
2022-12-05T02:29:33.834Z,1014.42
2022-12-05T02:30:33.797Z,1014.43
2022-12-05T02:31:33.859Z,1014.40
2022-12-05T02:32:33.839Z,1014.39
2022-12-05T02:33:33.777Z,1014.39
2022-12-05T02:34:33.784Z,1014.40
2022-12-05T02:35:33.763Z,1014.45
2022-12-05T02:36:33.733Z,1014.42
2022-12-05T02:37:33.729Z,1014.49
2022-12-05T02:38:33.717Z,1014.50
2022-12-05T02:39:33.733Z,1014.51
2022-12-05T02:40:33.694Z,1014.44
2022-12-05T02:41:33.691Z,1014.39
2022-12-05T02:42:33.673Z,1014.52
2022-12-05T02:43:33.668Z,1014.53
2022-12-05T02:44:33.681Z,1014.53
2022-12-05T02:45:33.701Z,1014.46
2022-12-05T02:46:33.656Z,1014.49
2022-12-05T02:47:33.623Z,1014.53
2022-12-05T02:48:33.662Z,1014.45
2022-12-05T02:49:33.603Z,1014.58
2022-12-05T02:50:33.588Z,1014.56
2022-12-05T02:51:33.586Z,1014.46
2022-12-05T02:52:33.598Z,1014.54
2022-12-05T02:53:33.557Z,1014.42
2022-12-05T02:54:33.545Z,1014.55
2022-12-05T02:55:33.561Z,1014.53
2022-12-05T02:56:33.526Z,1014.47
2022-12-05T02:57:33.534Z,1014.47
2022-12-05T02:58:33.505Z,1014.40
2022-12-05T02:59:33.495Z,1014.46
2022-12-05T03:00:33.503Z,1014.40
2022-12-05T03:01:33.531Z,1014.38
2022-12-05T03:02:33.461Z,1014.38
2022-12-05T03:03:33.452Z,1014.34
2022-12-05T03:04:33.583Z,1014.35
2022-12-05T03:05:33.459Z,1014.32
2022-12-05T03:06:33.421Z,1014.33
2022-12-05T03:07:33.456Z,1014.40
2022-12-05T03:08:33.407Z,1014.29
2022-12-05T03:09:33.387Z,1014.29
2022-12-05T03:10:33.375Z,1014.26
2022-12-05T03:11:33.399Z,1014.25
2022-12-05T03:12:33.389Z,1014.28
2022-12-05T03:13:33.348Z,1014.27
2022-12-05T03:14:33.333Z,1014.25
2022-12-05T03:15:33.324Z,1014.24
2022-12-05T03:16:33.400Z,1014.19
2022-12-05T03:17:33.303Z,1014.24
2022-12-05T03:18:33.309Z,1014.19
2022-12-05T03:19:33.291Z,1014.20
2022-12-05T03:20:33.295Z,1014.22
2022-12-05T03:21:33.269Z,1014.20
2022-12-05T03:22:33.270Z,1014.16
2022-12-05T03:23:33.256Z,1014.19
2022-12-05T03:24:33.234Z,1014.22
2022-12-05T03:25:33.219Z,1014.20
2022-12-05T03:26:33.216Z,1014.15
2022-12-05T03:27:33.202Z,1014.24
2022-12-05T03:28:33.206Z,1014.20
2022-12-05T03:29:33.177Z,1014.17
2022-12-05T03:30:33.226Z,1014.19
2022-12-05T03:31:33.161Z,1014.17
2022-12-05T03:32:33.160Z,1014.19
2022-12-05T03:33:33.133Z,1014.22
2022-12-05T03:34:33.123Z,1014.22
2022-12-05T03:35:33.115Z,1014.24
2022-12-05T03:36:33.122Z,1014.26
2022-12-05T03:37:33.131Z,1014.19
2022-12-05T03:38:33.105Z,1014.30
2022-12-05T03:39:33.073Z,1014.26
2022-12-05T03:40:33.059Z,1014.25
2022-12-05T03:41:33.052Z,1014.34
2022-12-05T03:42:33.051Z,1014.32
2022-12-05T03:43:33.057Z,1014.29
2022-12-05T03:44:33.018Z,1014.28
2022-12-05T03:45:33.029Z,1014.27
2022-12-05T03:46:33.103Z,1014.29
2022-12-05T03:47:33.024Z,1014.31
2022-12-05T03:48:32.996Z,1014.18
2022-12-05T03:49:34.304Z,1014.29
2022-12-05T03:50:32.992Z,1014.25
2022-12-05T03:51:32.960Z,1014.22
2022-12-05T03:52:45.795Z,1014.29
2022-12-05T03:53:33.943Z,1014.28
2022-12-05T03:54:32.907Z,1014.25
2022-12-05T03:55:32.899Z,1014.32
2022-12-05T03:56:32.906Z,1014.23
2022-12-05T03:57:32.887Z,1014.27
2022-12-05T03:58:32.866Z,1014.26
2022-12-05T03:59:32.863Z,1014.24
2022-12-05T04:00:32.845Z,1014.27
2022-12-05T04:01:32.936Z,1014.22
2022-12-05T04:02:32.864Z,1014.19
2022-12-05T04:03:32.947Z,1014.19
2022-12-05T04:04:32.799Z,1014.23
2022-12-05T04:05:32.798Z,1014.18
2022-12-05T04:06:32.817Z,1014.20
2022-12-05T04:07:32.845Z,1014.14
2022-12-05T04:08:32.782Z,1014.18
2022-12-05T04:09:32.750Z,1014.18
2022-12-05T04:10:32.740Z,1014.20
2022-12-05T04:11:32.753Z,1014.16
2022-12-05T04:12:32.719Z,1014.11
2022-12-05T04:13:32.709Z,1014.16
2022-12-05T04:14:32.692Z,1014.14
2022-12-05T04:15:32.748Z,1014.19
2022-12-05T04:16:32.703Z,1014.17
2022-12-05T04:17:32.670Z,1014.13
2022-12-05T04:18:32.654Z,1014.25
2022-12-05T04:19:32.643Z,1014.18
2022-12-05T04:20:32.628Z,1014.19
2022-12-05T04:21:32.652Z,1014.17
2022-12-05T04:22:32.610Z,1014.16
2022-12-05T04:23:32.603Z,1014.18
2022-12-05T04:24:32.618Z,1014.17
2022-12-05T04:25:32.582Z,1014.15
2022-12-05T04:26:32.594Z,1014.15
2022-12-05T04:27:32.558Z,1014.15
2022-12-05T04:28:32.545Z,1014.18
2022-12-05T04:29:32.538Z,1014.13
2022-12-05T04:30:32.524Z,1014.19
2022-12-05T04:31:32.662Z,1014.17
2022-12-05T04:32:32.516Z,1014.14
2022-12-05T04:33:32.500Z,1014.14
2022-12-05T04:34:32.486Z,1014.13
2022-12-05T04:35:32.479Z,1014.10
2022-12-05T04:36:32.469Z,1014.17
2022-12-05T04:37:32.486Z,1014.17
2022-12-05T04:38:32.451Z,1014.16
2022-12-05T04:39:32.432Z,1014.16
2022-12-05T04:40:32.442Z,1014.17
2022-12-05T04:41:32.413Z,1014.12
2022-12-05T04:42:32.402Z,1014.18
2022-12-05T04:43:32.421Z,1014.13
2022-12-05T04:44:32.395Z,1014.20
2022-12-05T04:45:32.377Z,1014.17
2022-12-05T04:46:32.421Z,1014.15
2022-12-05T04:47:32.350Z,1014.19
2022-12-05T04:48:32.357Z,1014.12
2022-12-05T04:49:32.345Z,1014.14
2022-12-05T04:50:32.317Z,1014.17
2022-12-05T04:51:32.305Z,1014.18
2022-12-05T04:52:32.318Z,1014.18
2022-12-05T04:53:32.289Z,1014.17
2022-12-05T04:54:32.271Z,1014.18
2022-12-05T04:55:32.264Z,1014.13
2022-12-05T04:56:32.299Z,1014.18
2022-12-05T04:57:32.245Z,1014.15
2022-12-05T04:58:32.229Z,1014.18
2022-12-05T04:59:32.224Z,1014.17
2022-12-05T05:00:32.212Z,1014.19
2022-12-05T05:01:32.269Z,1014.19
2022-12-05T05:02:32.299Z,1014.18
2022-12-05T05:03:32.182Z,1014.21
2022-12-05T05:04:32.175Z,1014.24
2022-12-05T05:05:32.160Z,1014.18
2022-12-05T05:06:32.145Z,1014.14
2022-12-05T05:07:32.203Z,1014.19
2022-12-05T05:08:32.122Z,1014.13
2022-12-05T05:09:32.114Z,1014.20
2022-12-05T05:10:32.113Z,1014.23
2022-12-05T05:11:32.098Z,1014.16
2022-12-05T05:12:32.141Z,1014.15
2022-12-05T05:13:32.075Z,1014.11
2022-12-05T05:14:32.065Z,1014.15
2022-12-05T05:15:32.053Z,1014.20
2022-12-05T05:16:32.101Z,1014.15
2022-12-05T05:17:32.030Z,1014.15
2022-12-05T05:18:32.046Z,1014.13
2022-12-05T05:19:32.020Z,1014.19
2022-12-05T05:20:32.010Z,1014.21
2022-12-05T05:21:31.989Z,1014.14
2022-12-05T05:22:31.985Z,1014.23
2022-12-05T05:23:31.987Z,1014.19
2022-12-05T05:24:31.957Z,1014.14
2022-12-05T05:25:31.945Z,1014.18
2022-12-05T05:26:31.939Z,1014.11
2022-12-05T05:27:31.926Z,1014.17
2022-12-05T05:28:31.964Z,1014.11
2022-12-05T05:29:31.935Z,1014.14
2022-12-05T05:30:31.899Z,1014.12
2022-12-05T05:31:31.967Z,1014.17
2022-12-05T05:32:31.877Z,1014.15
2022-12-05T05:33:31.863Z,1014.17
2022-12-05T05:34:31.853Z,1014.16
2022-12-05T05:35:31.857Z,1014.21
2022-12-05T05:36:31.831Z,1014.21
2022-12-05T05:37:31.848Z,1014.18
2022-12-05T05:38:31.812Z,1014.20
2022-12-05T05:39:31.795Z,1014.18
2022-12-05T05:40:31.793Z,1014.20
2022-12-05T05:41:31.773Z,1014.16
2022-12-05T05:42:31.771Z,1014.19
2022-12-05T05:43:31.779Z,1014.15
2022-12-05T05:44:31.774Z,1014.25
2022-12-05T05:45:31.737Z,1014.27
2022-12-05T05:46:31.831Z,1014.21
2022-12-05T05:47:31.717Z,1014.23
2022-12-05T05:48:31.731Z,1014.22
2022-12-05T05:49:31.701Z,1014.22
2022-12-05T05:50:31.685Z,1014.16
2022-12-05T05:51:31.670Z,1014.19
2022-12-05T05:52:31.664Z,1014.15
2022-12-05T05:53:31.686Z,1014.20
2022-12-05T05:54:31.639Z,1014.21
2022-12-05T05:55:31.657Z,1014.18
2022-12-05T05:56:31.684Z,1014.19
2022-12-05T05:57:31.603Z,1014.17
2022-12-05T05:58:31.622Z,1014.19
2022-12-05T05:59:31.590Z,1014.17
2022-12-05T06:00:31.621Z,1014.18
2022-12-05T06:01:31.566Z,1014.16
2022-12-05T06:02:31.593Z,1014.21
2022-12-05T06:03:31.723Z,1014.24
2022-12-05T06:04:31.533Z,1014.28
2022-12-05T06:05:31.549Z,1014.23
2022-12-05T06:06:31.536Z,1014.23
2022-12-05T06:07:31.544Z,1014.21
2022-12-05T06:08:31.492Z,1014.22
2022-12-05T06:09:31.482Z,1014.21
2022-12-05T06:10:31.469Z,1014.26
2022-12-05T06:11:31.480Z,1014.26
2022-12-05T06:12:31.450Z,1014.25
2022-12-05T06:13:31.437Z,1014.27
2022-12-05T06:14:31.429Z,1014.26
2022-12-05T06:15:31.413Z,1014.28
2022-12-05T06:16:31.555Z,1014.35
2022-12-05T06:17:31.386Z,1014.31
2022-12-05T06:18:31.391Z,1014.35
2022-12-05T06:19:31.369Z,1014.34
2022-12-05T06:20:31.363Z,1014.34
2022-12-05T06:21:31.367Z,1014.28
2022-12-05T06:22:31.343Z,1014.35
2022-12-05T06:23:31.323Z,1014.37
2022-12-05T06:24:31.320Z,1014.29
2022-12-05T06:25:31.306Z,1014.32
2022-12-05T06:26:31.321Z,1014.36
2022-12-05T06:27:31.289Z,1014.32
2022-12-05T06:28:31.274Z,1014.29
2022-12-05T06:29:34.098Z,1014.27
2022-12-05T06:30:31.267Z,1014.37
2022-12-05T06:31:31.354Z,1014.32
2022-12-05T06:32:31.255Z,1014.32
2022-12-05T06:33:31.218Z,1014.26
2022-12-05T06:34:31.213Z,1014.36
2022-12-05T06:35:31.223Z,1014.38
2022-12-05T06:36:31.196Z,1014.36
2022-12-05T06:37:31.201Z,1014.42
2022-12-05T06:38:31.169Z,1014.34
2022-12-05T06:39:31.151Z,1014.39
2022-12-05T06:40:31.166Z,1014.41
2022-12-05T06:41:31.135Z,1014.39
2022-12-05T06:42:31.126Z,1014.40
2022-12-05T06:43:31.111Z,1014.42
2022-12-05T06:44:31.101Z,1014.45
2022-12-05T06:45:31.162Z,1014.40
2022-12-05T06:46:31.075Z,1014.43
2022-12-05T06:47:31.065Z,1014.43
2022-12-05T06:48:31.078Z,1014.40
2022-12-05T06:49:34.972Z,1014.46
2022-12-05T06:50:32.074Z,1014.46
2022-12-05T06:51:31.022Z,1014.49
2022-12-05T06:52:31.016Z,1014.49
2022-12-05T06:53:31.009Z,1014.60
2022-12-05T06:54:30.998Z,1014.58
2022-12-05T06:55:30.987Z,1014.58
2022-12-05T06:56:30.993Z,1014.55
2022-12-05T06:57:30.953Z,1014.53
2022-12-05T06:58:30.949Z,1014.59
2022-12-05T06:59:30.938Z,1014.60
2022-12-05T07:00:30.932Z,1014.60
2022-12-05T07:01:31.011Z,1014.62
2022-12-05T07:02:30.938Z,1014.54
2022-12-05T07:03:30.902Z,1014.59
2022-12-05T07:04:30.911Z,1014.55
2022-12-05T07:05:30.885Z,1014.58
2022-12-05T07:06:30.891Z,1014.63
2022-12-05T07:07:30.918Z,1014.62
2022-12-05T07:08:30.844Z,1014.64
2022-12-05T07:09:30.833Z,1014.62
2022-12-05T07:10:30.827Z,1014.63
2022-12-05T07:11:30.828Z,1014.58
2022-12-05T07:12:30.798Z,1014.62
2022-12-05T07:13:30.792Z,1014.65
2022-12-05T07:14:46.920Z,1014.59
2022-12-05T07:15:31.762Z,1014.64
2022-12-05T07:16:30.844Z,1014.62
2022-12-05T07:17:30.741Z,1014.63
2022-12-05T07:18:30.756Z,1014.67
2022-12-05T07:19:30.719Z,1014.64
2022-12-05T07:20:49.486Z,1014.65
2022-12-05T07:21:31.696Z,1014.67
2022-12-05T07:22:30.693Z,1014.69
2022-12-05T07:23:30.702Z,1014.68
2022-12-05T07:24:30.673Z,1014.67
2022-12-05T07:25:30.655Z,1014.70
2022-12-05T07:26:30.645Z,1014.66
2022-12-05T07:27:30.639Z,1014.65
2022-12-05T07:28:30.622Z,1014.72
2022-12-05T07:29:30.640Z,1014.72
2022-12-05T07:30:30.606Z,1014.66
2022-12-05T07:31:30.636Z,1014.70
2022-12-05T07:32:30.581Z,1014.74
2022-12-05T07:33:30.571Z,1014.74
2022-12-05T07:34:30.587Z,1014.78
2022-12-05T07:35:30.545Z,1014.70
2022-12-05T07:36:30.560Z,1014.72
2022-12-05T07:37:30.526Z,1014.73
2022-12-05T07:38:30.540Z,1014.72
2022-12-05T07:39:30.526Z,1014.75
2022-12-05T07:40:30.502Z,1014.70
2022-12-05T07:41:30.487Z,1014.72
2022-12-05T07:42:30.478Z,1014.71
2022-12-05T07:43:30.459Z,1014.76
2022-12-05T07:44:30.483Z,1014.73
2022-12-05T07:45:30.581Z,1014.77
2022-12-05T07:46:30.446Z,1014.78
2022-12-05T07:47:30.518Z,1014.77
2022-12-05T07:48:30.433Z,1014.70
2022-12-05T07:49:30.438Z,1014.72
2022-12-05T07:50:30.461Z,1014.71
2022-12-05T07:51:30.388Z,1014.69
2022-12-05T07:52:30.409Z,1014.77
2022-12-05T07:53:30.349Z,1014.74
2022-12-05T07:54:30.344Z,1014.69
2022-12-05T07:55:30.361Z,1014.73
2022-12-05T07:56:30.319Z,1014.69
2022-12-05T07:57:30.309Z,1014.70
2022-12-05T07:58:30.303Z,1014.70
2022-12-05T07:59:30.332Z,1014.74
2022-12-05T08:00:30.280Z,1014.82
2022-12-05T08:01:30.382Z,1014.73
2022-12-05T08:02:30.343Z,1014.76
2022-12-05T08:03:30.256Z,1014.71
2022-12-05T08:04:30.236Z,1014.73
2022-12-05T08:05:30.248Z,1014.77
2022-12-05T08:06:30.220Z,1014.66
2022-12-05T08:07:30.267Z,1014.70
2022-12-05T08:08:30.216Z,1014.69
2022-12-05T08:09:30.183Z,1014.71
2022-12-05T08:10:30.196Z,1014.65
2022-12-05T08:11:30.164Z,1014.71
2022-12-05T08:12:30.152Z,1014.69
2022-12-05T08:13:30.132Z,1014.68
2022-12-05T08:14:30.129Z,1014.75
2022-12-05T08:15:30.138Z,1014.75
2022-12-05T08:16:30.172Z,1014.66
2022-12-05T08:17:30.115Z,1014.78
2022-12-05T08:18:30.085Z,1014.78
2022-12-05T08:19:30.070Z,1014.76
2022-12-05T08:20:30.065Z,1014.75
2022-12-05T08:21:30.074Z,1014.79
2022-12-05T08:22:30.049Z,1014.81
2022-12-05T08:23:30.035Z,1014.77
2022-12-05T08:24:30.059Z,1014.78
2022-12-05T08:25:30.009Z,1014.77
2022-12-05T08:26:30.026Z,1014.78
2022-12-05T08:27:29.988Z,1014.77
2022-12-05T08:28:29.980Z,1014.76
2022-12-05T08:29:29.964Z,1014.76
2022-12-05T08:30:30.037Z,1014.74
2022-12-05T08:31:30.018Z,1014.78
2022-12-05T08:32:29.933Z,1014.76
2022-12-05T08:33:29.923Z,1014.80
2022-12-05T08:34:29.909Z,1014.83
2022-12-05T08:35:29.925Z,1014.77
2022-12-05T08:36:29.913Z,1014.79
2022-12-05T08:37:29.874Z,1014.78
2022-12-05T08:38:29.921Z,1014.81
2022-12-05T08:39:32.610Z,1014.74
2022-12-05T08:40:30.870Z,1014.77
2022-12-05T08:41:29.882Z,1014.73
2022-12-05T08:42:29.831Z,1014.72
2022-12-05T08:43:29.807Z,1014.70
2022-12-05T08:44:29.805Z,1014.74
2022-12-05T08:45:29.789Z,1014.72
2022-12-05T08:46:29.924Z,1014.69
2022-12-05T08:47:32.232Z,1014.72
2022-12-05T08:48:29.928Z,1014.70
2022-12-05T08:49:29.751Z,1014.78
2022-12-05T08:50:29.741Z,1014.69
2022-12-05T08:51:29.746Z,1014.72
2022-12-05T08:52:29.740Z,1014.69
2022-12-05T08:53:29.704Z,1014.72
2022-12-05T08:54:29.696Z,1014.76
2022-12-05T08:55:29.679Z,1014.79
2022-12-05T08:56:29.713Z,1014.78
2022-12-05T08:57:29.682Z,1014.73
2022-12-05T08:58:29.659Z,1014.69
2022-12-05T08:59:29.671Z,1014.76
2022-12-05T09:00:29.625Z,1014.69
2022-12-05T09:01:29.687Z,1014.68
2022-12-05T09:02:29.711Z,1014.68
2022-12-05T09:03:29.599Z,1014.73
2022-12-05T09:04:29.586Z,1014.74
2022-12-05T09:05:29.873Z,1014.72
2022-12-05T09:06:29.615Z,1014.69
2022-12-05T09:07:29.624Z,1014.74
2022-12-05T09:08:29.573Z,1014.75
2022-12-05T09:09:29.530Z,1014.73
2022-12-05T09:10:29.619Z,1014.72
2022-12-05T09:11:29.511Z,1014.66
2022-12-05T09:12:29.519Z,1014.71
2022-12-05T09:13:29.512Z,1014.74
2022-12-05T09:14:29.484Z,1014.67
2022-12-05T09:15:29.568Z,1014.70
2022-12-05T09:16:35.101Z,1014.73
2022-12-05T09:17:30.447Z,1014.63
2022-12-05T09:18:29.463Z,1014.69
2022-12-05T09:19:29.422Z,1014.62
2022-12-05T09:20:29.421Z,1014.66
2022-12-05T09:21:29.399Z,1014.64
2022-12-05T09:22:29.397Z,1014.64
2022-12-05T09:23:29.399Z,1014.66
2022-12-05T09:24:29.381Z,1014.72
2022-12-05T09:25:29.380Z,1014.63
2022-12-05T09:26:29.380Z,1014.64
2022-12-05T09:27:29.340Z,1014.62
2022-12-05T09:28:29.350Z,1014.56
2022-12-05T09:29:29.319Z,1014.68
2022-12-05T09:30:29.319Z,1014.60
2022-12-05T09:31:29.378Z,1014.58
2022-12-05T09:32:29.296Z,1014.57
2022-12-05T09:33:29.273Z,1014.58
2022-12-05T09:34:29.263Z,1014.60
2022-12-05T09:35:29.296Z,1014.58
2022-12-05T09:36:29.264Z,1014.56
2022-12-05T09:37:41.680Z,1014.62
2022-12-05T09:38:30.216Z,1014.59
2022-12-05T09:39:29.241Z,1014.57
2022-12-05T09:40:29.202Z,1014.64
2022-12-05T09:41:29.197Z,1014.64
2022-12-05T09:42:29.171Z,1014.63
2022-12-05T09:43:29.176Z,1014.58
2022-12-05T09:44:29.208Z,1014.61
2022-12-05T09:45:29.157Z,1014.59
2022-12-05T09:46:33.961Z,1014.59
2022-12-05T09:47:30.187Z,1014.62
2022-12-05T09:48:29.111Z,1014.62
2022-12-05T09:49:29.122Z,1014.66
2022-12-05T09:50:29.094Z,1014.60
2022-12-05T09:51:29.081Z,1014.60
2022-12-05T09:52:29.066Z,1014.65
2022-12-05T09:53:29.084Z,1014.63
2022-12-05T09:54:29.062Z,1014.63
2022-12-05T09:55:29.066Z,1014.64
2022-12-05T09:56:29.028Z,1014.63
2022-12-05T09:57:33.716Z,1014.61
2022-12-05T09:58:30.001Z,1014.61
2022-12-05T09:59:28.998Z,1014.64
2022-12-05T10:00:29.021Z,1014.55
2022-12-05T10:01:29.074Z,1014.58
2022-12-05T10:02:28.959Z,1014.61
2022-12-05T10:03:28.952Z,1014.58
2022-12-05T10:04:29.221Z,1014.55
2022-12-05T10:05:29.079Z,1014.54
2022-12-05T10:06:28.921Z,1014.56
2022-12-05T10:07:28.928Z,1014.55
2022-12-05T10:08:28.919Z,1014.57
2022-12-05T10:09:28.914Z,1014.51
2022-12-05T10:10:28.886Z,1014.53
2022-12-05T10:11:28.865Z,1014.54
2022-12-05T10:12:28.853Z,1014.46
2022-12-05T10:13:28.849Z,1014.52
2022-12-05T10:14:28.867Z,1014.49
2022-12-05T10:15:28.825Z,1014.56
2022-12-05T10:16:28.900Z,1014.48
2022-12-05T10:17:28.801Z,1014.55
2022-12-05T10:18:28.809Z,1014.48
2022-12-05T10:19:28.778Z,1014.51
2022-12-05T10:20:28.780Z,1014.53
2022-12-05T10:21:28.754Z,1014.49
2022-12-05T10:22:28.748Z,1014.43
2022-12-05T10:23:56.057Z,1014.49
2022-12-05T10:24:29.739Z,1014.51
2022-12-05T10:25:28.723Z,1014.51
2022-12-05T10:26:28.701Z,1014.54
2022-12-05T10:27:28.696Z,1014.53
2022-12-05T10:28:28.700Z,1014.50
2022-12-05T10:29:28.686Z,1014.51
2022-12-05T10:30:28.683Z,1014.58
2022-12-05T10:31:28.688Z,1014.55
2022-12-05T10:32:28.656Z,1014.53
2022-12-05T10:33:28.635Z,1014.57
2022-12-05T10:34:28.619Z,1014.48
2022-12-05T10:35:28.635Z,1014.55
2022-12-05T10:36:28.602Z,1014.54
2022-12-05T10:37:28.592Z,1014.48
2022-12-05T10:38:28.582Z,1014.52
2022-12-05T10:39:28.605Z,1014.52
2022-12-05T10:40:28.553Z,1014.52
2022-12-05T10:41:28.574Z,1014.46
2022-12-05T10:42:28.532Z,1014.52
2022-12-05T10:43:28.524Z,1014.51
2022-12-05T10:44:28.512Z,1014.53
2022-12-05T10:45:28.505Z,1014.45
2022-12-05T10:46:28.553Z,1014.50
2022-12-05T10:47:28.491Z,1014.44
2022-12-05T10:48:28.489Z,1014.42
2022-12-05T10:49:28.480Z,1014.47
2022-12-05T10:50:28.455Z,1014.38
2022-12-05T10:51:32.529Z,1014.42
2022-12-05T10:52:29.431Z,1014.41
2022-12-05T10:53:28.416Z,1014.41
2022-12-05T10:54:28.406Z,1014.42
2022-12-05T10:55:28.391Z,1014.39
2022-12-05T10:56:30.785Z,1014.41
2022-12-05T10:57:28.374Z,1014.40
2022-12-05T10:58:28.368Z,1014.46
2022-12-05T10:59:28.354Z,1014.41
2022-12-05T11:00:28.339Z,1014.43
2022-12-05T11:01:28.384Z,1014.48
2022-12-05T11:02:28.443Z,1014.46
2022-12-05T11:03:28.311Z,1014.47
2022-12-05T11:04:28.343Z,1014.50
2022-12-05T11:05:28.393Z,1014.43
2022-12-05T11:06:28.279Z,1014.45
2022-12-05T11:07:28.290Z,1014.44
2022-12-05T11:08:55.949Z,1014.44
2022-12-05T11:09:29.247Z,1014.41
2022-12-05T11:10:28.243Z,1014.39
2022-12-05T11:11:28.302Z,1014.40
2022-12-05T11:12:28.238Z,1014.35
2022-12-05T11:13:28.206Z,1014.37
2022-12-05T11:14:28.192Z,1014.39
2022-12-05T11:15:28.190Z,1014.37
2022-12-05T11:16:28.246Z,1014.34
2022-12-05T11:17:28.186Z,1014.38
2022-12-05T11:18:28.151Z,1014.40
2022-12-05T11:19:28.148Z,1014.34
2022-12-05T11:20:28.143Z,1014.40
2022-12-05T11:21:28.122Z,1014.33
2022-12-05T11:22:28.138Z,1014.34
2022-12-05T11:23:28.101Z,1014.34
2022-12-05T11:24:28.085Z,1014.41
2022-12-05T11:25:28.127Z,1014.36
2022-12-05T11:26:28.064Z,1014.33
2022-12-05T11:27:28.058Z,1014.36
2022-12-05T11:28:28.045Z,1014.31
2022-12-05T11:29:28.042Z,1014.32
2022-12-05T11:30:28.020Z,1014.26
2022-12-05T11:31:28.291Z,1014.28
2022-12-05T11:32:28.007Z,1014.28
2022-12-05T11:33:27.991Z,1014.27
2022-12-05T11:34:27.980Z,1014.28
2022-12-05T11:35:27.995Z,1014.25
2022-12-05T11:36:27.977Z,1014.28
2022-12-05T11:37:27.959Z,1014.29
2022-12-05T11:38:27.938Z,1014.28
2022-12-05T11:39:27.933Z,1014.20
2022-12-05T11:40:29.523Z,1014.27
2022-12-05T11:41:27.980Z,1014.31
2022-12-05T11:42:27.900Z,1014.32
2022-12-05T11:43:27.888Z,1014.32
2022-12-05T11:44:27.864Z,1014.33
2022-12-05T11:45:27.866Z,1014.27
2022-12-05T11:46:27.925Z,1014.26
2022-12-05T11:47:27.840Z,1014.28
2022-12-05T11:48:27.827Z,1014.32
2022-12-05T11:49:27.846Z,1014.31
2022-12-05T11:50:27.807Z,1014.27
2022-12-05T11:51:27.797Z,1014.24
2022-12-05T11:52:27.911Z,1014.29
2022-12-05T11:53:27.801Z,1014.23
2022-12-05T11:54:56.718Z,1014.27
2022-12-05T11:55:28.757Z,1014.28
2022-12-05T11:56:27.739Z,1014.26
2022-12-05T11:57:27.735Z,1014.28
2022-12-05T11:58:27.739Z,1014.28
2022-12-05T11:59:27.711Z,1014.21
2022-12-05T12:00:27.694Z,1014.27
2022-12-05T12:01:27.714Z,1014.22
2022-12-05T12:02:27.733Z,1014.28
2022-12-05T12:03:32.814Z,1014.22
2022-12-05T12:04:28.669Z,1014.19
2022-12-05T12:05:27.676Z,1014.17